createdAt,value
2023-06-07T00:00:10.275Z,101678.34
2023-06-07T00:02:43.604Z,101684.63
2023-06-07T00:05:14.744Z,101686.75
2023-06-07T00:07:44.406Z,101682.44
2023-06-07T00:10:12.994Z,101683.72
2023-06-07T00:12:41.178Z,101673.09
2023-06-07T00:15:10.102Z,101687.31
2023-06-07T00:17:46.168Z,101683.78
2023-06-07T00:20:15.826Z,101681.13
2023-06-07T00:22:45.364Z,101691.97
2023-06-07T00:25:13.472Z,101687.47
2023-06-07T00:27:41.632Z,101688.19
2023-06-07T00:30:10.935Z,101682.09
2023-06-07T00:32:39.028Z,101687.72
2023-06-07T00:35:08.744Z,101680.97
2023-06-07T00:37:37.048Z,101683.53
2023-06-07T00:40:07.611Z,101685.66
2023-06-07T00:42:35.870Z,101684.88
2023-06-07T00:45:04.012Z,101683.25
2023-06-07T00:47:32.910Z,101679.66
2023-06-07T00:50:01.367Z,101682.25
2023-06-07T00:52:29.800Z,101685.03
2023-06-07T00:54:59.366Z,101688.72
2023-06-07T00:57:28.984Z,101681.78
2023-06-07T00:59:57.421Z,101676.50
2023-06-07T01:02:27.335Z,101687.31
2023-06-07T01:04:56.314Z,101690.03
2023-06-07T01:07:26.004Z,101683.25
2023-06-07T01:09:55.250Z,101679.66
2023-06-07T01:12:24.951Z,101683.94
2023-06-07T01:14:55.767Z,101679.75
2023-06-07T01:17:25.610Z,101680.84
2023-06-07T01:19:54.635Z,101682.56
2023-06-07T01:22:28.235Z,101686.22
2023-06-07T01:24:58.161Z,101674.81
2023-06-07T01:27:28.248Z,101682.84
2023-06-07T01:29:57.980Z,101674.81
2023-06-07T01:32:27.861Z,101673.09
2023-06-07T01:34:56.674Z,101671.31
2023-06-07T01:37:25.990Z,101663.72
2023-06-07T01:39:56.097Z,101665.84
2023-06-07T01:42:26.075Z,101665.00
2023-06-07T01:44:56.209Z,101666.63
2023-06-07T01:47:24.399Z,101668.38
2023-06-07T01:49:52.468Z,101667.78
2023-06-07T01:52:20.500Z,101668.94
2023-06-07T01:54:49.164Z,101663.47
2023-06-07T01:57:25.828Z,101666.25
2023-06-07T02:00:07.722Z,101657.34
2023-06-07T02:02:45.367Z,101662.91
2023-06-07T02:05:17.585Z,101661.13
2023-06-07T02:07:50.562Z,101665.38
2023-06-07T02:10:21.451Z,101662.00
2023-06-07T02:12:53.882Z,101663.75
2023-06-07T02:15:23.845Z,101664.66
2023-06-07T02:17:58.864Z,101656.06
2023-06-07T02:20:27.517Z,101645.25
2023-06-07T02:22:57.025Z,101658.41
2023-06-07T02:25:25.814Z,101660.41
2023-06-07T02:27:54.121Z,101655.91
2023-06-07T02:30:23.775Z,101655.06
2023-06-07T02:32:54.757Z,101655.13
2023-06-07T02:35:24.114Z,101648.09
2023-06-07T02:37:52.922Z,101650.91
2023-06-07T02:40:21.256Z,101652.84
2023-06-07T02:42:50.235Z,101649.25
2023-06-07T02:45:18.260Z,101650.19
2023-06-07T02:47:47.851Z,101653.81
2023-06-07T02:50:16.058Z,101649.31
2023-06-07T02:52:45.369Z,101644.97
2023-06-07T02:55:13.417Z,101648.75
2023-06-07T02:57:41.904Z,101654.13
2023-06-07T03:00:12.349Z,101653.06
2023-06-07T03:02:40.701Z,101639.78
2023-06-07T03:05:11.139Z,101656.38
2023-06-07T03:07:41.681Z,101651.22
2023-06-07T03:10:10.396Z,101652.47
2023-06-07T03:12:38.580Z,101648.69
2023-06-07T03:15:09.310Z,101647.88
2023-06-07T03:17:38.145Z,101647.97
2023-06-07T03:20:09.792Z,101652.47
2023-06-07T03:22:39.725Z,101643.34
2023-06-07T03:25:08.679Z,101654.06
2023-06-07T03:27:36.911Z,101634.84
2023-06-07T03:30:06.590Z,101657.72
2023-06-07T03:32:34.972Z,101650.75
2023-06-07T03:35:03.288Z,101655.22
2023-06-07T03:37:31.368Z,101657.13
2023-06-07T03:40:00.756Z,101659.69
2023-06-07T03:42:28.749Z,101653.31
2023-06-07T03:44:56.776Z,101656.28
2023-06-07T03:47:24.871Z,101662.72
2023-06-07T03:49:52.938Z,101668.47
2023-06-07T03:52:21.125Z,101661.50
2023-06-07T03:54:49.419Z,101664.34
2023-06-07T03:57:18.948Z,101670.88
2023-06-07T03:59:46.928Z,101670.13
2023-06-07T04:02:14.997Z,101670.13
2023-06-07T04:04:43.737Z,101670.13
2023-06-07T04:07:13.066Z,101679.38
2023-06-07T04:09:42.240Z,101670.25
2023-06-07T04:12:11.432Z,101672.72
2023-06-07T04:14:40.833Z,101671.13
2023-06-07T04:17:08.896Z,101669.69
2023-06-07T04:19:39.246Z,101673.91
2023-06-07T04:22:13.524Z,101672.00
2023-06-07T04:24:41.522Z,101670.06
2023-06-07T04:27:12.372Z,101662.16
2023-06-07T04:29:41.958Z,101673.88
2023-06-07T04:32:11.097Z,101661.63
2023-06-07T04:34:43.284Z,101668.28
2023-06-07T04:37:11.484Z,101671.03
2023-06-07T04:39:42.001Z,101667.28
2023-06-07T04:42:10.966Z,101677.66
2023-06-07T04:44:43.681Z,101671.22
2023-06-07T04:47:13.327Z,101665.91
2023-06-07T04:49:41.968Z,101664.88
2023-06-07T04:52:13.435Z,101669.38
2023-06-07T04:54:42.526Z,101675.00
2023-06-07T04:57:11.973Z,101677.78
2023-06-07T04:59:44.262Z,101675.03
2023-06-07T05:02:13.705Z,101670.59
2023-06-07T05:04:41.774Z,101677.94
2023-06-07T05:07:12.340Z,101676.75
2023-06-07T05:09:40.423Z,101685.44
2023-06-07T05:12:09.883Z,101673.97
2023-06-07T05:14:37.892Z,101693.47
2023-06-07T05:17:06.713Z,101689.44
2023-06-07T05:19:36.272Z,101684.56
2023-06-07T05:22:04.325Z,101679.91
2023-06-07T05:24:32.410Z,101695.94
2023-06-07T05:27:02.246Z,101693.81
2023-06-07T05:29:31.541Z,101682.09
2023-06-07T05:31:59.736Z,101689.91
2023-06-07T05:34:27.940Z,101692.28
2023-06-07T05:36:57.741Z,101691.03
2023-06-07T05:39:26.745Z,101698.69
2023-06-07T05:41:54.832Z,101695.63
2023-06-07T05:44:22.822Z,101694.81
2023-06-07T05:46:50.911Z,101692.66
2023-06-07T05:49:18.968Z,101691.06
2023-06-07T05:51:47.025Z,101688.47
2023-06-07T05:54:17.453Z,101700.22
2023-06-07T05:56:45.489Z,101700.84
2023-06-07T05:59:13.937Z,101699.69
2023-06-07T06:01:46.010Z,101683.56
2023-06-07T06:04:14.245Z,101691.56
2023-06-07T06:06:42.587Z,101693.31
2023-06-07T06:09:10.940Z,101700.72
2023-06-07T06:11:42.518Z,101707.81
2023-06-07T06:14:10.537Z,101707.78
2023-06-07T06:16:38.592Z,101705.16
2023-06-07T06:19:06.720Z,101702.91
2023-06-07T06:21:34.793Z,101704.66
2023-06-07T06:24:04.094Z,101705.38
2023-06-07T06:26:32.324Z,101708.13
2023-06-07T06:29:01.864Z,101711.38
2023-06-07T06:31:30.259Z,101704.25
2023-06-07T06:33:58.674Z,101715.78
2023-06-07T06:36:27.799Z,101715.56
2023-06-07T06:38:55.825Z,101728.03
2023-06-07T06:41:24.060Z,101728.22
2023-06-07T06:43:52.185Z,101716.66
2023-06-07T06:46:21.652Z,101722.56
2023-06-07T06:48:59.261Z,101726.03
2023-06-07T06:51:37.716Z,101724.47
2023-06-07T06:54:06.122Z,101729.72
2023-06-07T06:56:34.149Z,101725.13
2023-06-07T06:59:02.281Z,101721.28
2023-06-07T07:01:47.109Z,101717.72
2023-06-07T07:04:17.240Z,101724.56
2023-06-07T07:06:45.940Z,101722.50
2023-06-07T07:09:14.496Z,101725.19
2023-06-07T07:11:42.524Z,101725.81
2023-06-07T07:14:12.946Z,101728.25
2023-06-07T07:16:41.409Z,101720.97
2023-06-07T07:19:10.933Z,101727.81
2023-06-07T07:21:39.259Z,101715.16
2023-06-07T07:24:08.591Z,101717.81
2023-06-07T07:26:37.270Z,101718.50
2023-06-07T07:29:05.450Z,101720.03
2023-06-07T07:31:34.774Z,101711.00
2023-06-07T07:34:04.029Z,101720.59
2023-06-07T07:36:35.094Z,101718.56
2023-06-07T07:39:05.772Z,101712.97
2023-06-07T07:41:33.949Z,101720.47
2023-06-07T07:44:02.028Z,101717.75
2023-06-07T07:46:30.171Z,101717.53
2023-06-07T07:48:58.412Z,101719.91
2023-06-07T07:51:26.469Z,101711.50
2023-06-07T07:53:55.905Z,101708.22
2023-06-07T07:56:24.102Z,101710.91
2023-06-07T07:58:52.836Z,101714.06
2023-06-07T08:01:21.557Z,101718.25
2023-06-07T08:03:50.307Z,101724.03
2023-06-07T08:06:18.742Z,101711.22
2023-06-07T08:08:47.731Z,101719.16
2023-06-07T08:11:17.143Z,101718.19
2023-06-07T08:13:45.455Z,101723.22
2023-06-07T08:16:13.626Z,101716.56
2023-06-07T08:18:41.772Z,101715.63
2023-06-07T08:21:09.907Z,101711.69
2023-06-07T08:23:37.993Z,101715.53
2023-06-07T08:26:06.196Z,101712.38
2023-06-07T08:28:35.676Z,101711.44
2023-06-07T08:31:05.084Z,101711.41
2023-06-07T08:33:33.144Z,101715.56
2023-06-07T08:36:01.165Z,101702.09
2023-06-07T08:38:29.537Z,101705.03
2023-06-07T08:41:00.164Z,101707.50
2023-06-07T08:43:28.490Z,101703.66
2023-06-07T08:45:58.686Z,101707.88
2023-06-07T08:48:27.414Z,101705.53
2023-06-07T08:50:57.601Z,101710.44
2023-06-07T08:53:28.990Z,101705.06
2023-06-07T08:55:58.035Z,101710.44
2023-06-07T08:58:27.300Z,101707.44
2023-06-07T09:00:55.822Z,101706.13
2023-06-07T09:03:26.275Z,101701.16
2023-06-07T09:05:57.809Z,101709.09
2023-06-07T09:08:25.900Z,101705.88
2023-06-07T09:10:53.957Z,101710.53
2023-06-07T09:13:22.206Z,101699.25
2023-06-07T09:15:53.041Z,101696.03
2023-06-07T09:18:21.317Z,101702.78
2023-06-07T09:20:50.934Z,101701.09
2023-06-07T09:23:20.919Z,101704.41
2023-06-07T09:25:55.762Z,101704.31
2023-06-07T09:28:23.800Z,101701.47
2023-06-07T09:30:56.487Z,101705.44
2023-06-07T09:33:29.695Z,101699.16
2023-06-07T09:36:06.546Z,101703.53
2023-06-07T09:38:34.866Z,101694.66
2023-06-07T09:41:04.695Z,101687.41
2023-06-07T09:43:44.391Z,101692.63
2023-06-07T09:46:14.024Z,101689.28
2023-06-07T09:48:49.306Z,101693.44
2023-06-07T09:51:19.928Z,101686.41
2023-06-07T09:53:53.563Z,101687.78
2023-06-07T09:56:23.763Z,101689.69
2023-06-07T09:59:07.851Z,101683.75
2023-06-07T10:01:39.069Z,101677.22
2023-06-07T10:04:08.255Z,101684.97
2023-06-07T10:06:41.730Z,101680.75
2023-06-07T10:09:10.795Z,101685.13
2023-06-07T10:11:40.934Z,101679.88
2023-06-07T10:14:12.409Z,101683.53
2023-06-07T10:16:46.101Z,101684.03
2023-06-07T10:19:20.737Z,101664.13
2023-06-07T10:21:53.091Z,101672.78
2023-06-07T10:24:26.591Z,101668.53
2023-06-07T10:26:56.872Z,101671.69
2023-06-07T10:29:32.030Z,101656.06
2023-06-07T10:32:10.153Z,101659.06
2023-06-07T10:34:40.028Z,101653.97
2023-06-07T10:37:10.317Z,101654.66
2023-06-07T10:39:39.510Z,101659.97
2023-06-07T10:42:08.030Z,101660.84
2023-06-07T10:44:38.586Z,101650.72
2023-06-07T10:47:26.051Z,101655.59
2023-06-07T10:49:54.797Z,101652.72
2023-06-07T10:52:25.107Z,101651.31
2023-06-07T10:54:53.588Z,101650.72
2023-06-07T10:57:36.190Z,101649.91
2023-06-07T11:00:29.875Z,101654.25
2023-06-07T11:03:36.499Z,101647.75
2023-06-07T11:06:06.692Z,101645.19
2023-06-07T11:08:38.137Z,101646.25
2023-06-07T11:11:28.415Z,101639.47
2023-06-07T11:14:13.664Z,101644.50
2023-06-07T11:16:42.649Z,101642.78
2023-06-07T11:19:17.979Z,101637.84
2023-06-07T11:22:09.095Z,101624.53
2023-06-07T11:24:39.603Z,101639.50
2023-06-07T11:27:16.326Z,101639.59
2023-06-07T11:29:45.041Z,101635.25
2023-06-07T11:32:13.871Z,101627.22
2023-06-07T11:34:42.180Z,101624.38
2023-06-07T11:37:11.810Z,101633.44
2023-06-07T11:39:41.555Z,101622.91
2023-06-07T11:42:09.907Z,101603.53
2023-06-07T11:44:38.332Z,101618.75
2023-06-07T11:47:08.258Z,101595.97
2023-06-07T11:49:39.582Z,101613.13
2023-06-07T11:52:08.706Z,101624.19
2023-06-07T11:54:37.325Z,101627.59
2023-06-07T11:57:10.567Z,101621.31
2023-06-07T11:59:38.696Z,101620.81
2023-06-07T12:02:07.487Z,101622.81
2023-06-07T12:04:36.648Z,101617.53
2023-06-07T12:07:21.308Z,101620.50
2023-06-07T12:09:52.570Z,101607.13
2023-06-07T12:12:23.892Z,101610.94
2023-06-07T12:15:01.575Z,101609.94
2023-06-07T12:17:35.447Z,101608.13
2023-06-07T12:20:12.544Z,101609.63
2023-06-07T12:22:41.447Z,101613.19
2023-06-07T12:25:11.699Z,101605.69
2023-06-07T12:27:41.198Z,101605.88
2023-06-07T12:30:10.445Z,101605.41
2023-06-07T12:32:38.880Z,101587.97
2023-06-07T12:35:08.933Z,101593.38
2023-06-07T12:37:38.144Z,101582.59
2023-06-07T12:40:07.433Z,101604.22
2023-06-07T12:42:37.008Z,101592.97
2023-06-07T12:45:08.828Z,101588.78
2023-06-07T12:47:37.462Z,101579.94
2023-06-07T12:50:06.369Z,101583.53
2023-06-07T12:52:34.877Z,101575.31
2023-06-07T12:55:03.341Z,101591.09
2023-06-07T12:57:31.694Z,101579.00
2023-06-07T12:59:59.762Z,101580.03
2023-06-07T13:02:30.085Z,101572.88
2023-06-07T13:04:58.379Z,101580.84
2023-06-07T13:07:26.465Z,101581.50
2023-06-07T13:09:54.451Z,101567.28
2023-06-07T13:12:22.966Z,101567.25
2023-06-07T13:14:51.059Z,101566.63
2023-06-07T13:17:19.771Z,101566.69
2023-06-07T13:19:51.132Z,101570.03
2023-06-07T13:22:19.339Z,101576.53
2023-06-07T13:24:47.436Z,101566.09
2023-06-07T13:27:16.399Z,101571.72
2023-06-07T13:29:44.477Z,101570.69
2023-06-07T13:32:13.390Z,101569.16
2023-06-07T13:34:41.536Z,101563.97
2023-06-07T13:37:11.175Z,101561.22
2023-06-07T13:39:40.340Z,101552.91
2023-06-07T13:42:10.314Z,101554.63
2023-06-07T13:44:39.748Z,101551.97
2023-06-07T13:47:09.773Z,101557.72
2023-06-07T13:49:39.047Z,101550.91
2023-06-07T13:52:08.601Z,101553.97
2023-06-07T13:54:38.042Z,101550.63
2023-06-07T13:57:07.673Z,101555.88
2023-06-07T13:59:37.281Z,101551.09
2023-06-07T14:02:09.296Z,101540.19
2023-06-07T14:04:37.781Z,101534.13
2023-06-07T14:07:09.193Z,101534.09
2023-06-07T14:09:38.761Z,101534.81
2023-06-07T14:12:09.473Z,101535.34
2023-06-07T14:14:37.620Z,101521.72
2023-06-07T14:17:05.916Z,101521.81
2023-06-07T14:19:34.216Z,101534.78
2023-06-07T14:22:02.235Z,101522.84
2023-06-07T14:24:30.450Z,101530.56
2023-06-07T14:27:00.938Z,101518.69
2023-06-07T14:29:29.061Z,101524.31
2023-06-07T14:31:57.783Z,101518.59
2023-06-07T14:34:25.969Z,101521.19
2023-06-07T14:36:54.008Z,101519.13
2023-06-07T14:39:22.188Z,101516.25
2023-06-07T14:41:51.264Z,101526.06
2023-06-07T14:44:21.387Z,101519.31
2023-06-07T14:46:49.368Z,101527.66
2023-06-07T14:49:17.470Z,101514.84
2023-06-07T14:51:48.136Z,101524.31
2023-06-07T14:54:16.179Z,101515.41
2023-06-07T14:56:44.272Z,101521.34
2023-06-07T14:59:13.992Z,101522.09
2023-06-07T15:01:43.984Z,101521.00
2023-06-07T15:04:12.209Z,101520.84
2023-06-07T15:06:41.136Z,101529.13
2023-06-07T15:09:09.222Z,101532.72
2023-06-07T15:11:37.300Z,101519.28
2023-06-07T15:14:05.518Z,101517.63
2023-06-07T15:16:33.671Z,101517.78
2023-06-07T15:19:03.337Z,101521.59
2023-06-07T15:21:31.476Z,101517.41
2023-06-07T15:23:59.569Z,101519.09
2023-06-07T15:26:28.143Z,101521.25
2023-06-07T15:28:58.771Z,101515.50
2023-06-07T15:31:27.573Z,101509.22
2023-06-07T15:33:56.471Z,101511.75
2023-06-07T15:36:26.500Z,101505.13
2023-06-07T15:38:54.957Z,101507.19
2023-06-07T15:41:23.262Z,101502.72
2023-06-07T15:43:51.443Z,101504.41
2023-06-07T15:46:19.648Z,101506.31
2023-06-07T15:48:51.462Z,101505.78
2023-06-07T15:51:20.492Z,101502.84
2023-06-07T15:53:51.128Z,101505.44
2023-06-07T15:56:19.164Z,101505.69
2023-06-07T15:58:47.267Z,101489.91
2023-06-07T16:01:15.353Z,101501.78
2023-06-07T16:03:55.608Z,101496.78
2023-06-07T16:06:24.800Z,101501.13
2023-06-07T16:08:54.280Z,101498.34
2023-06-07T16:11:22.819Z,101494.50
2023-06-07T16:13:50.990Z,101491.16
2023-06-07T16:16:19.002Z,101490.78
2023-06-07T16:18:47.083Z,101487.38
2023-06-07T16:21:15.126Z,101491.34
2023-06-07T16:23:43.325Z,101483.19
2023-06-07T16:26:12.831Z,101485.00
2023-06-07T16:28:40.908Z,101480.34
2023-06-07T16:31:09.018Z,101479.75
2023-06-07T16:33:37.062Z,101482.75
2023-06-07T16:36:08.217Z,101483.09
2023-06-07T16:38:36.553Z,101481.00
2023-06-07T16:41:04.622Z,101480.81
2023-06-07T16:43:34.283Z,101485.75
2023-06-07T16:46:02.529Z,101480.91
2023-06-07T16:48:30.803Z,101478.13
2023-06-07T16:50:58.877Z,101473.31
2023-06-07T16:53:27.008Z,101480.88
2023-06-07T16:55:55.099Z,101487.31
2023-06-07T16:58:24.335Z,101488.59
2023-06-07T17:00:53.807Z,101485.09
2023-06-07T17:03:21.904Z,101475.22
2023-06-07T17:05:50.075Z,101488.25
2023-06-07T17:08:18.287Z,101484.91
2023-06-07T17:10:48.123Z,101487.09
2023-06-07T17:13:16.436Z,101494.44
2023-06-07T17:15:44.886Z,101463.69
2023-06-07T17:18:14.381Z,101486.53
2023-06-07T17:20:42.606Z,101487.34
2023-06-07T17:23:10.716Z,101491.94
2023-06-07T17:25:39.444Z,101492.00
2023-06-07T17:28:07.513Z,101490.00
2023-06-07T17:30:39.957Z,101489.00
2023-06-07T17:33:08.311Z,101489.41
2023-06-07T17:35:37.875Z,101489.00
2023-06-07T17:38:05.939Z,101484.41
2023-06-07T17:40:33.946Z,101479.56
2023-06-07T17:43:02.342Z,101478.91
2023-06-07T17:45:30.417Z,101483.88
2023-06-07T17:47:58.496Z,101481.91
2023-06-07T17:50:41.637Z,101481.16
2023-06-07T17:53:15.758Z,101483.28
2023-06-07T17:55:45.979Z,101486.97
2023-06-07T17:58:14.346Z,101483.53
2023-06-07T18:00:42.657Z,101483.75
2023-06-07T18:03:12.246Z,101489.28
2023-06-07T18:05:40.683Z,101493.13
2023-06-07T18:08:08.775Z,101489.06
2023-06-07T18:10:38.590Z,101483.97
2023-06-07T18:13:06.639Z,101493.13
2023-06-07T18:15:36.053Z,101492.59
2023-06-07T18:18:04.281Z,101491.91
2023-06-07T18:20:32.362Z,101490.69
2023-06-07T18:23:00.403Z,101492.22
2023-06-07T18:25:28.485Z,101497.81
2023-06-07T18:27:57.961Z,101499.81
2023-06-07T18:30:27.182Z,101490.06
2023-06-07T18:32:57.325Z,101487.78
2023-06-07T18:35:25.516Z,101491.78
2023-06-07T18:37:53.601Z,101494.03
2023-06-07T18:40:21.807Z,101490.09
2023-06-07T18:42:49.883Z,101494.13
2023-06-07T18:45:19.320Z,101489.09
2023-06-07T18:47:47.598Z,101492.09
2023-06-07T18:50:15.937Z,101486.03
2023-06-07T18:52:44.158Z,101492.00
2023-06-07T18:55:12.228Z,101488.22
2023-06-07T18:57:40.264Z,101482.59
2023-06-07T19:00:09.705Z,101492.97
2023-06-07T19:02:39.438Z,101492.50
2023-06-07T19:05:08.850Z,101502.84
2023-06-07T19:07:37.118Z,101496.91
2023-06-07T19:10:06.058Z,101497.59
2023-06-07T19:12:34.113Z,101493.69
2023-06-07T19:15:02.221Z,101501.22
2023-06-07T19:17:30.451Z,101505.16
2023-06-07T19:20:00.723Z,101505.81
2023-06-07T19:22:29.044Z,101504.06
2023-06-07T19:24:57.117Z,101516.22
2023-06-07T19:27:25.276Z,101507.94
2023-06-07T19:29:53.297Z,101514.94
2023-06-07T19:32:22.605Z,101496.00
2023-06-07T19:34:51.839Z,101516.50
2023-06-07T19:37:21.622Z,101518.88
2023-06-07T19:39:50.041Z,101510.38
2023-06-07T19:42:22.144Z,101525.41
2023-06-07T19:44:50.572Z,101490.75
2023-06-07T19:47:18.622Z,101529.13
2023-06-07T19:49:47.405Z,101525.09
2023-06-07T19:52:15.421Z,101527.69
2023-06-07T19:54:44.818Z,101529.63
2023-06-07T19:57:13.017Z,101528.13
2023-06-07T19:59:41.281Z,101523.06
2023-06-07T20:02:09.402Z,101527.34
2023-06-07T20:04:38.241Z,101528.47
2023-06-07T20:07:09.410Z,101534.34
2023-06-07T20:09:38.903Z,101540.00
2023-06-07T20:12:10.008Z,101542.59
2023-06-07T20:14:40.656Z,101539.31
2023-06-07T20:17:10.255Z,101542.75
2023-06-07T20:19:38.586Z,101536.38
2023-06-07T20:22:07.103Z,101540.47
2023-06-07T20:24:35.122Z,101538.09
2023-06-07T20:27:03.633Z,101534.91
2023-06-07T20:29:32.993Z,101530.78
2023-06-07T20:32:01.101Z,101539.53
2023-06-07T20:34:29.342Z,101538.53
2023-06-07T20:36:57.430Z,101538.63
2023-06-07T20:39:25.480Z,101537.41
2023-06-07T20:41:53.722Z,101546.63
2023-06-07T20:44:22.033Z,101549.84
2023-06-07T20:46:51.977Z,101552.69
2023-06-07T20:49:20.004Z,101555.53
2023-06-07T20:51:48.210Z,101561.00
2023-06-07T20:54:16.264Z,101558.78
2023-06-07T20:56:44.429Z,101564.03
2023-06-07T20:59:12.520Z,101561.41
2023-06-07T21:01:40.644Z,101554.41
2023-06-07T21:04:10.284Z,101564.44
2023-06-07T21:06:38.417Z,101562.50
2023-06-07T21:09:06.461Z,101569.72
2023-06-07T21:11:34.576Z,101558.00
2023-06-07T21:14:02.629Z,101562.50
2023-06-07T21:16:30.698Z,101557.38
2023-06-07T21:18:58.745Z,101558.13
2023-06-07T21:21:28.239Z,101553.81
2023-06-07T21:23:56.360Z,101551.06
2023-06-07T21:26:24.427Z,101550.13
2023-06-07T21:28:52.470Z,101563.03
2023-06-07T21:31:20.579Z,101552.13
2023-06-07T21:33:59.597Z,101562.22
2023-06-07T21:36:30.540Z,101561.63
2023-06-07T21:38:58.788Z,101571.03
2023-06-07T21:41:27.910Z,101569.69
2023-06-07T21:43:56.459Z,101565.59
2023-06-07T21:46:24.618Z,101536.41
2023-06-07T21:48:52.666Z,101569.06
2023-06-07T21:51:21.684Z,101573.88
2023-06-07T21:53:51.184Z,101568.50
2023-06-07T21:56:19.179Z,101571.00
2023-06-07T21:58:47.408Z,101576.81
2023-06-07T22:01:15.540Z,101576.84
2023-06-07T22:03:43.636Z,101569.16
2023-06-07T22:06:11.746Z,101568.31
2023-06-07T22:08:39.757Z,101566.53
2023-06-07T22:11:09.152Z,101562.50
2023-06-07T22:13:38.161Z,101564.25
2023-06-07T22:16:07.349Z,101561.84
2023-06-07T22:18:36.514Z,101571.84
2023-06-07T22:21:05.092Z,101571.34
2023-06-07T22:23:33.553Z,101574.34
2023-06-07T22:26:02.152Z,101574.03
2023-06-07T22:28:31.755Z,101569.88
2023-06-07T22:30:59.894Z,101575.34
2023-06-07T22:33:28.108Z,101576.78
2023-06-07T22:35:58.304Z,101576.34
2023-06-07T22:38:26.888Z,101578.47
2023-06-07T22:40:55.512Z,101573.19
2023-06-07T22:43:23.922Z,101581.25
2023-06-07T22:45:53.372Z,101577.94
2023-06-07T22:48:21.603Z,101582.34
2023-06-07T22:50:51.811Z,101573.03
2023-06-07T22:53:20.950Z,101579.16
2023-06-07T22:55:49.054Z,101571.31
2023-06-07T22:58:17.087Z,101584.72
2023-06-07T23:00:45.119Z,101575.59
2023-06-07T23:03:14.673Z,101576.50
2023-06-07T23:05:44.747Z,101581.44
2023-06-07T23:08:12.717Z,101581.66
2023-06-07T23:10:40.734Z,101577.03
2023-06-07T23:13:10.765Z,101566.31
2023-06-07T23:15:42.994Z,101579.34
2023-06-07T23:18:12.582Z,101568.25
2023-06-07T23:20:42.793Z,101577.03
2023-06-07T23:23:13.359Z,101570.81
2023-06-07T23:25:41.662Z,101580.09
2023-06-07T23:28:09.745Z,101580.00
2023-06-07T23:30:37.997Z,101575.97
2023-06-07T23:33:07.903Z,101580.47
2023-06-07T23:35:36.367Z,101581.72
2023-06-07T23:38:06.049Z,101581.72
2023-06-07T23:40:34.149Z,101578.69
2023-06-07T23:43:03.343Z,101580.75
2023-06-07T23:45:31.672Z,101581.78
2023-06-07T23:48:00.058Z,101578.59
2023-06-07T23:50:28.342Z,101578.22
2023-06-07T23:52:56.339Z,101578.19
2023-06-07T23:55:26.252Z,101581.00
2023-06-07T23:57:54.302Z,101584.31
